createdAt,value
2022-08-29T00:00:52.538Z,100551.46
2022-08-29T00:03:24.573Z,100551.48
2022-08-29T00:05:56.572Z,100554.41
2022-08-29T00:08:27.801Z,100554.54
2022-08-29T00:10:59.512Z,100551.63
2022-08-29T00:13:31.233Z,100552.23
2022-08-29T00:16:03.470Z,100553.74
2022-08-29T00:18:35.563Z,100558.64
2022-08-29T00:21:08.010Z,100559.98
2022-08-29T00:23:40.506Z,100554.41
2022-08-29T00:26:12.245Z,100559.70
2022-08-29T00:28:44.022Z,100561.59
2022-08-29T00:31:15.817Z,100555.87
2022-08-29T00:33:47.585Z,100559.45
2022-08-29T00:36:19.440Z,100550.91
2022-08-29T00:38:54.509Z,100559.39
2022-08-29T00:41:26.307Z,100558.59
2022-08-29T00:43:58.308Z,100557.10
2022-08-29T00:46:46.246Z,100557.15
2022-08-29T00:49:30.404Z,100564.48
2022-08-29T00:52:05.662Z,100568.70
2022-08-29T00:54:38.807Z,100572.52
2022-08-29T00:57:10.820Z,100567.13
2022-08-29T00:59:43.268Z,100560.52
2022-08-29T01:02:15.416Z,100565.84
2022-08-29T01:04:47.548Z,100566.40
2022-08-29T01:07:20.377Z,100570.73
2022-08-29T01:09:52.953Z,100567.92
2022-08-29T01:12:23.917Z,100574.46
2022-08-29T01:14:57.840Z,100573.42
2022-08-29T01:17:34.848Z,100572.45
2022-08-29T01:20:14.032Z,100576.00
2022-08-29T01:23:00.827Z,100580.37
2022-08-29T01:25:37.312Z,100582.54
2022-08-29T01:28:14.746Z,100577.84
2022-08-29T01:31:01.769Z,100585.16
2022-08-29T01:33:43.774Z,100577.06
2022-08-29T01:36:17.790Z,100576.26
2022-08-29T01:38:49.916Z,100579.38
2022-08-29T01:41:23.006Z,100579.98
2022-08-29T01:43:58.251Z,100581.70
2022-08-29T01:46:32.492Z,100585.98
2022-08-29T01:49:07.808Z,100585.04
2022-08-29T01:51:40.553Z,100589.35
2022-08-29T01:54:11.170Z,100584.38
2022-08-29T01:56:46.565Z,100584.91
2022-08-29T01:59:21.616Z,100588.93
2022-08-29T02:01:59.574Z,100588.45
2022-08-29T02:04:31.893Z,100585.48
2022-08-29T02:07:06.439Z,100588.59
2022-08-29T02:09:43.199Z,100586.46
2022-08-29T02:12:19.332Z,100588.54
2022-08-29T02:14:51.873Z,100583.48
2022-08-29T02:17:24.659Z,100583.27
2022-08-29T02:19:56.432Z,100585.08
2022-08-29T02:22:28.129Z,100585.44
2022-08-29T02:25:23.702Z,100585.75
2022-08-29T02:27:56.269Z,100579.09
2022-08-29T02:30:28.360Z,100576.92
2022-08-29T02:32:59.992Z,100576.18
2022-08-29T02:35:37.968Z,100571.49
2022-08-29T02:38:14.868Z,100570.47
2022-08-29T02:40:47.749Z,100572.01
2022-08-29T02:43:19.259Z,100574.73
2022-08-29T02:45:51.082Z,100579.27
2022-08-29T02:48:23.445Z,100584.87
2022-08-29T02:50:58.952Z,100587.20
2022-08-29T02:53:32.173Z,100584.33
2022-08-29T02:56:04.080Z,100585.56
2022-08-29T02:58:35.705Z,100584.99
2022-08-29T03:01:07.716Z,100590.30
2022-08-29T03:03:39.968Z,100594.51
2022-08-29T03:06:12.408Z,100593.90
2022-08-29T03:08:44.629Z,100595.18
2022-08-29T03:11:17.187Z,100596.95
2022-08-29T03:13:49.689Z,100596.54
2022-08-29T03:16:21.549Z,100593.64
2022-08-29T03:18:53.381Z,100595.19
2022-08-29T03:21:27.666Z,100596.35
2022-08-29T03:23:59.424Z,100593.94
2022-08-29T03:26:31.555Z,100598.20
2022-08-29T03:29:03.619Z,100600.16
2022-08-29T03:31:35.849Z,100597.95
2022-08-29T03:34:08.118Z,100600.55
2022-08-29T03:36:39.781Z,100599.67
2022-08-29T03:39:11.577Z,100605.85
2022-08-29T03:41:43.553Z,100601.11
2022-08-29T03:44:15.498Z,100606.92
2022-08-29T03:46:47.321Z,100602.61
2022-08-29T03:49:18.977Z,100609.73
2022-08-29T03:51:51.089Z,100606.05
2022-08-29T03:54:23.150Z,100611.73
2022-08-29T03:56:55.624Z,100613.10
2022-08-29T03:59:27.388Z,100615.84
2022-08-29T04:01:59.345Z,100615.98
2022-08-29T04:04:48.714Z,100619.45
2022-08-29T04:07:20.725Z,100617.54
2022-08-29T04:09:52.563Z,100618.15
2022-08-29T04:12:24.243Z,100621.65
2022-08-29T04:14:56.194Z,100623.73
2022-08-29T04:17:28.065Z,100620.84
2022-08-29T04:19:59.703Z,100629.86
2022-08-29T04:22:31.779Z,100624.88
2022-08-29T04:25:04.302Z,100630.78
2022-08-29T04:27:37.487Z,100626.42
2022-08-29T04:30:13.169Z,100631.83
2022-08-29T04:32:45.252Z,100632.63
2022-08-29T04:35:17.826Z,100634.35
2022-08-29T04:37:50.792Z,100637.41
2022-08-29T04:40:24.496Z,100637.48
2022-08-29T04:42:56.432Z,100638.13
2022-08-29T04:45:29.048Z,100636.25
2022-08-29T04:48:03.461Z,100637.64
2022-08-29T04:50:35.956Z,100637.65
2022-08-29T04:53:07.718Z,100635.76
2022-08-29T04:55:39.389Z,100635.25
2022-08-29T04:58:11.874Z,100630.63
2022-08-29T05:00:43.824Z,100634.30
2022-08-29T05:03:15.590Z,100636.55
2022-08-29T05:05:47.670Z,100634.39
2022-08-29T05:08:21.005Z,100638.65
2022-08-29T05:10:52.828Z,100638.65
2022-08-29T05:13:25.053Z,100641.70
2022-08-29T05:15:57.441Z,100641.14
2022-08-29T05:18:29.209Z,100643.00
2022-08-29T05:21:01.174Z,100648.59
2022-08-29T05:23:33.040Z,100646.34
2022-08-29T05:26:06.226Z,100652.17
2022-08-29T05:28:38.344Z,100653.05
2022-08-29T05:31:13.899Z,100656.07
2022-08-29T05:33:45.809Z,100655.41
2022-08-29T05:36:17.500Z,100659.10
2022-08-29T05:38:49.350Z,100660.96
2022-08-29T05:41:21.172Z,100659.61
2022-08-29T05:43:54.246Z,100660.74
2022-08-29T05:46:26.846Z,100660.55
2022-08-29T05:48:58.605Z,100664.33
2022-08-29T05:51:37.297Z,100666.38
2022-08-29T05:54:11.549Z,100672.13
2022-08-29T05:56:43.285Z,100671.86
2022-08-29T05:59:15.182Z,100674.45
2022-08-29T06:01:47.915Z,100669.45
2022-08-29T06:04:20.120Z,100673.27
2022-08-29T06:06:51.862Z,100675.73
2022-08-29T06:09:23.722Z,100673.61
2022-08-29T06:11:57.649Z,100667.18
2022-08-29T06:14:29.760Z,100668.80
2022-08-29T06:17:01.353Z,100676.98
2022-08-29T06:19:34.911Z,100672.75
2022-08-29T06:22:09.944Z,100674.89
2022-08-29T06:24:44.592Z,100679.55
2022-08-29T06:27:16.373Z,100681.62
2022-08-29T06:29:48.411Z,100679.36
2022-08-29T06:32:20.234Z,100675.38
2022-08-29T06:34:52.141Z,100680.85
2022-08-29T06:37:23.848Z,100678.08
2022-08-29T06:39:55.688Z,100677.98
2022-08-29T06:42:28.747Z,100676.90
2022-08-29T06:45:00.611Z,100680.91
2022-08-29T06:47:32.447Z,100681.48
2022-08-29T06:50:04.634Z,100683.41
2022-08-29T06:52:36.530Z,100686.48
2022-08-29T06:55:11.782Z,100697.55
2022-08-29T06:57:46.125Z,100706.58
2022-08-29T07:00:22.101Z,100708.61
2022-08-29T07:02:55.018Z,100708.50
2022-08-29T07:05:26.812Z,100716.39
2022-08-29T07:07:58.516Z,100714.11
2022-08-29T07:10:30.230Z,100715.13
2022-08-29T07:13:02.065Z,100720.19
2022-08-29T07:15:33.904Z,100718.83
2022-08-29T07:18:05.967Z,100721.17
2022-08-29T07:20:39.394Z,100726.96
2022-08-29T07:23:11.145Z,100734.38
2022-08-29T07:25:42.242Z,100735.36
2022-08-29T07:28:14.511Z,100738.27
2022-08-29T07:30:47.131Z,100740.13
2022-08-29T07:33:18.973Z,100738.34
2022-08-29T07:35:51.811Z,100734.58
2022-08-29T07:38:22.215Z,100739.02
2022-08-29T07:41:01.128Z,100734.89
2022-08-29T07:43:33.198Z,100735.23
2022-08-29T07:46:10.456Z,100731.84
2022-08-29T07:48:43.568Z,100728.83
2022-08-29T07:51:17.468Z,100727.23
2022-08-29T07:53:49.431Z,100731.13
2022-08-29T07:56:24.564Z,100733.37
2022-08-29T07:58:57.834Z,100733.10
2022-08-29T08:01:30.080Z,100732.14
2022-08-29T08:04:01.959Z,100732.13
2022-08-29T08:06:36.658Z,100734.58
2022-08-29T08:09:10.191Z,100736.55
2022-08-29T08:11:42.987Z,100734.02
2022-08-29T08:14:15.106Z,100731.52
2022-08-29T08:16:47.329Z,100726.98
2022-08-29T08:19:19.249Z,100729.51
2022-08-29T08:21:51.876Z,100731.12
2022-08-29T08:24:25.145Z,100729.48
2022-08-29T08:26:56.968Z,100727.85
2022-08-29T08:29:28.661Z,100732.23
2022-08-29T08:32:00.425Z,100727.54
2022-08-29T08:34:35.885Z,100733.36
2022-08-29T08:37:11.095Z,100733.75
2022-08-29T08:39:45.713Z,100740.02
2022-08-29T08:42:28.829Z,100739.95
2022-08-29T08:45:09.200Z,100740.82
2022-08-29T08:47:45.776Z,100745.36
2022-08-29T08:50:25.276Z,100743.31
2022-08-29T08:53:04.326Z,100737.98
2022-08-29T08:55:45.514Z,100737.21
2022-08-29T08:58:28.844Z,100741.20
2022-08-29T09:01:05.015Z,100740.80
2022-08-29T09:03:57.349Z,100743.38
2022-08-29T09:06:53.298Z,100737.55
2022-08-29T09:09:36.679Z,100734.30
2022-08-29T09:12:19.424Z,100740.52
2022-08-29T09:15:03.215Z,100737.03
2022-08-29T09:17:43.612Z,100736.40
2022-08-29T09:20:20.430Z,100739.66
2022-08-29T09:23:01.402Z,100735.84
2022-08-29T09:25:36.481Z,100729.94
2022-08-29T09:28:10.499Z,100736.06
2022-08-29T09:30:44.768Z,100732.71
2022-08-29T09:33:19.089Z,100732.96
2022-08-29T09:35:53.694Z,100729.83
2022-08-29T09:38:28.171Z,100736.20
2022-08-29T09:41:02.302Z,100735.80
2022-08-29T09:43:50.386Z,100734.17
2022-08-29T09:46:25.551Z,100747.23
2022-08-29T09:49:14.113Z,100747.02
2022-08-29T09:51:48.931Z,100747.73
2022-08-29T09:54:28.246Z,100739.02
2022-08-29T09:57:06.588Z,100740.92
2022-08-29T09:59:41.861Z,100742.38
2022-08-29T10:02:22.705Z,100740.50
2022-08-29T10:04:57.784Z,100737.50
2022-08-29T10:07:31.632Z,100737.63
2022-08-29T10:10:08.014Z,100739.19
2022-08-29T10:12:51.016Z,100735.27
2022-08-29T10:15:49.206Z,100740.33
2022-08-29T10:18:28.844Z,100739.48
2022-08-29T10:21:13.415Z,100741.42
2022-08-29T10:24:01.119Z,100740.86
2022-08-29T10:26:42.656Z,100743.30
2022-08-29T10:29:31.455Z,100745.53
2022-08-29T10:32:11.371Z,100743.39
2022-08-29T10:35:01.892Z,100737.27
2022-08-29T10:37:44.801Z,100733.48
2022-08-29T10:40:17.590Z,100732.48
2022-08-29T10:42:49.373Z,100736.16
2022-08-29T10:45:36.294Z,100732.92
2022-08-29T10:48:14.185Z,100738.17
2022-08-29T10:50:54.180Z,100730.02
2022-08-29T10:53:31.954Z,100733.23
2022-08-29T10:56:13.441Z,100732.19
2022-08-29T10:58:57.135Z,100734.89
2022-08-29T11:01:35.482Z,100729.73
2022-08-29T11:04:17.799Z,100740.84
2022-08-29T11:06:56.855Z,100736.52
2022-08-29T11:09:34.962Z,100745.54
2022-08-29T11:12:17.668Z,100739.98
2022-08-29T11:14:54.208Z,100738.38
2022-08-29T11:17:31.038Z,100737.88
2022-08-29T11:20:11.708Z,100743.07
2022-08-29T11:22:49.642Z,100744.35
2022-08-29T11:25:23.318Z,100744.88
2022-08-29T11:28:04.575Z,100741.84
2022-08-29T11:30:44.890Z,100758.98
2022-08-29T11:33:24.043Z,100745.60
2022-08-29T11:36:13.607Z,100744.69
2022-08-29T11:39:02.775Z,100744.95
2022-08-29T11:41:37.138Z,100741.44
2022-08-29T11:44:19.110Z,100735.92
2022-08-29T11:46:56.228Z,100737.52
2022-08-29T11:49:39.797Z,100736.08
2022-08-29T11:52:22.824Z,100734.73
2022-08-29T11:55:24.230Z,100742.86
2022-08-29T11:58:07.201Z,100744.34
2022-08-29T12:00:53.232Z,100743.98
2022-08-29T12:03:57.273Z,100743.47
2022-08-29T12:07:01.055Z,100741.67
2022-08-29T12:09:47.369Z,100751.73
2022-08-29T12:12:40.607Z,100747.96
2022-08-29T12:15:46.272Z,100750.20
2022-08-29T12:18:36.673Z,100752.19
2022-08-29T12:21:45.687Z,100754.02
2022-08-29T12:24:40.915Z,100757.13
2022-08-29T12:27:47.624Z,100750.55
2022-08-29T12:30:20.737Z,100750.83
2022-08-29T12:33:05.065Z,100749.58
2022-08-29T12:36:18.258Z,100744.77
2022-08-29T12:39:07.288Z,100747.59
2022-08-29T12:41:52.616Z,100753.70
2022-08-29T12:44:29.246Z,100751.23
2022-08-29T12:47:08.719Z,100755.21
2022-08-29T12:49:51.401Z,100753.27
2022-08-29T12:52:27.792Z,100752.42
2022-08-29T12:55:17.594Z,100749.21
2022-08-29T12:57:50.451Z,100752.80
2022-08-29T13:00:25.510Z,100748.86
2022-08-29T13:03:04.108Z,100753.31
2022-08-29T13:05:38.319Z,100753.81
2022-08-29T13:08:13.390Z,100748.55
2022-08-29T13:10:57.877Z,100745.88
2022-08-29T13:13:30.535Z,100744.21
2022-08-29T13:16:02.277Z,100751.70
2022-08-29T13:18:44.596Z,100740.44
2022-08-29T13:21:28.224Z,100743.23
2022-08-29T13:24:12.759Z,100746.00
2022-08-29T13:27:04.541Z,100750.47
2022-08-29T13:29:40.810Z,100750.60
2022-08-29T13:32:23.190Z,100751.77
2022-08-29T13:35:17.658Z,100751.61
2022-08-29T13:38:18.807Z,100754.70
2022-08-29T13:40:53.429Z,100758.10
2022-08-29T13:43:36.836Z,100756.95
2022-08-29T13:46:18.260Z,100757.54
2022-08-29T13:48:58.585Z,100757.22
2022-08-29T13:51:30.443Z,100750.64
2022-08-29T13:54:02.179Z,100749.27
2022-08-29T13:56:35.124Z,100753.73
2022-08-29T13:59:07.057Z,100750.84
2022-08-29T14:04:40.415Z,100746.44
2022-08-29T14:07:19.187Z,100743.45
2022-08-29T14:09:52.234Z,100748.66
2022-08-29T14:12:33.749Z,100748.25
2022-08-29T14:15:09.717Z,100743.27
2022-08-29T14:17:43.674Z,100748.75
2022-08-29T14:20:19.490Z,100746.61
2022-08-29T14:22:51.196Z,100745.98
2022-08-29T14:25:25.018Z,100750.20
2022-08-29T14:27:56.997Z,100745.97
2022-08-29T14:30:28.953Z,100746.98
2022-08-29T14:33:01.701Z,100750.16
2022-08-29T14:35:33.857Z,100752.68
2022-08-29T14:38:11.100Z,100754.46
2022-08-29T14:40:43.693Z,100752.29
2022-08-29T14:43:16.031Z,100754.88
2022-08-29T14:45:47.798Z,100749.95
2022-08-29T14:48:19.633Z,100749.60
2022-08-29T14:50:51.475Z,100746.92
2022-08-29T14:53:23.464Z,100746.10
2022-08-29T14:55:56.024Z,100742.13
2022-08-29T14:58:26.446Z,100738.33
2022-08-29T15:00:58.715Z,100731.81
2022-08-29T15:03:31.228Z,100726.08
2022-08-29T15:06:03.286Z,100725.64
2022-08-29T15:08:35.336Z,100729.77
2022-08-29T15:11:07.518Z,100729.38
2022-08-29T15:13:39.557Z,100732.27
2022-08-29T15:16:12.013Z,100728.05
2022-08-29T15:19:31.191Z,100730.18
2022-08-29T15:21:34.243Z,100735.14
2022-08-29T15:24:06.821Z,100736.27
2022-08-29T15:26:37.016Z,100741.52
2022-08-29T15:29:09.485Z,100743.70
2022-08-29T15:31:41.227Z,100739.38
2022-08-29T15:34:13.144Z,100733.58
2022-08-29T15:36:45.057Z,100731.29
2022-08-29T15:39:17.397Z,100727.95
2022-08-29T15:41:49.818Z,100727.17
2022-08-29T15:44:21.711Z,100728.63
2022-08-29T15:46:52.573Z,100728.06
2022-08-29T15:49:26.430Z,100724.22
2022-08-29T15:51:59.289Z,100728.73
2022-08-29T15:54:31.021Z,100729.05
2022-08-29T15:57:04.038Z,100725.16
2022-08-29T15:59:57.149Z,100725.21
2022-08-29T16:02:29.011Z,100723.19
2022-08-29T16:05:02.120Z,100715.77
2022-08-29T16:07:33.997Z,100714.65
2022-08-29T16:10:10.892Z,100710.28
2022-08-29T16:12:43.617Z,100712.88
2022-08-29T16:15:16.708Z,100718.11
2022-08-29T16:17:49.065Z,100715.33
2022-08-29T16:20:20.915Z,100717.14
2022-08-29T16:22:52.780Z,100718.84
2022-08-29T16:25:25.599Z,100721.97
2022-08-29T16:27:57.923Z,100724.28
2022-08-29T16:30:30.794Z,100725.35
2022-08-29T16:33:01.747Z,100728.98
2022-08-29T16:35:33.489Z,100721.62
2022-08-29T16:38:05.522Z,100721.08
2022-08-29T16:40:37.536Z,100717.25
2022-08-29T16:43:10.203Z,100721.30
2022-08-29T16:45:41.970Z,100720.86
2022-08-29T16:48:15.700Z,100720.69
2022-08-29T16:50:50.152Z,100718.81
2022-08-29T16:53:22.685Z,100723.19
2022-08-29T16:55:54.501Z,100723.70
2022-08-29T16:58:44.082Z,100728.19
2022-08-29T17:01:16.304Z,100733.98
2022-08-29T17:03:48.769Z,100730.38
2022-08-29T17:06:20.520Z,100734.17
2022-08-29T17:08:51.462Z,100736.56
2022-08-29T17:11:23.159Z,100737.64
2022-08-29T17:13:54.200Z,100740.21
2022-08-29T17:16:25.602Z,100743.23
2022-08-29T17:18:58.150Z,100738.86
2022-08-29T17:21:31.881Z,100738.42
2022-08-29T17:24:06.800Z,100741.72
2022-08-29T17:26:42.172Z,100741.38
2022-08-29T17:29:14.080Z,100743.25
2022-08-29T17:31:47.075Z,100744.03
2022-08-29T17:34:19.595Z,100747.16
2022-08-29T17:36:51.334Z,100745.66
2022-08-29T17:39:23.916Z,100744.73
2022-08-29T17:41:55.864Z,100746.43
2022-08-29T17:44:27.835Z,100746.07
2022-08-29T17:46:59.980Z,100745.77
2022-08-29T17:49:32.418Z,100748.33
2022-08-29T17:52:04.636Z,100749.06
2022-08-29T17:54:36.652Z,100749.96
2022-08-29T17:57:09.414Z,100753.19
2022-08-29T17:59:42.487Z,100749.93
2022-08-29T18:02:15.440Z,100746.08
2022-08-29T18:04:47.205Z,100749.46
2022-08-29T18:07:18.973Z,100751.41
2022-08-29T18:09:50.761Z,100753.83
2022-08-29T18:12:22.647Z,100755.09
2022-08-29T18:14:55.028Z,100755.22
2022-08-29T18:17:26.810Z,100759.89
2022-08-29T18:19:59.244Z,100760.39
2022-08-29T18:22:31.330Z,100764.05
2022-08-29T18:25:03.121Z,100765.01
2022-08-29T18:27:35.146Z,100769.48
2022-08-29T18:30:09.934Z,100777.05
2022-08-29T18:32:42.209Z,100780.63
2022-08-29T18:35:14.207Z,100780.59
2022-08-29T18:37:46.195Z,100783.30
2022-08-29T18:40:18.016Z,100784.48
2022-08-29T18:42:49.811Z,100787.93
2022-08-29T18:45:21.855Z,100786.70
2022-08-29T18:47:53.700Z,100784.63
2022-08-29T18:50:35.502Z,100789.85
2022-08-29T18:53:11.949Z,100788.96
2022-08-29T18:55:51.047Z,100788.36
2022-08-29T18:58:27.722Z,100788.25
2022-08-29T19:01:00.687Z,100792.93
2022-08-29T19:03:33.219Z,100795.73
2022-08-29T19:06:06.063Z,100795.64
2022-08-29T19:08:39.610Z,100794.36
2022-08-29T19:11:12.394Z,100793.25
2022-08-29T19:13:46.279Z,100794.52
2022-08-29T19:16:21.548Z,100798.86
2022-08-29T19:18:54.347Z,100796.46
2022-08-29T19:21:26.985Z,100793.54
2022-08-29T19:23:59.201Z,100799.20
2022-08-29T19:26:37.259Z,100802.40
2022-08-29T19:29:13.334Z,100798.30
2022-08-29T19:31:46.496Z,100797.81
2022-08-29T19:34:18.757Z,100804.11
2022-08-29T19:36:51.661Z,100802.94
2022-08-29T19:39:24.236Z,100801.52
2022-08-29T19:41:56.661Z,100800.42
2022-08-29T19:44:31.049Z,100799.40
2022-08-29T19:47:07.056Z,100802.63
2022-08-29T19:49:40.999Z,100807.55
2022-08-29T19:52:15.253Z,100813.55
2022-08-29T19:54:47.099Z,100812.94
2022-08-29T19:57:22.824Z,100813.11
2022-08-29T19:59:55.261Z,100810.84
2022-08-29T20:02:28.172Z,100809.25
2022-08-29T20:05:00.504Z,100810.61
2022-08-29T20:07:32.333Z,100802.47
2022-08-29T20:10:04.139Z,100808.98
2022-08-29T20:12:36.959Z,100811.52
2022-08-29T20:15:12.662Z,100811.11
2022-08-29T20:17:44.497Z,100813.05
2022-08-29T20:20:20.604Z,100813.39
2022-08-29T20:22:52.861Z,100817.07
2022-08-29T20:25:25.740Z,100814.80
2022-08-29T20:27:57.479Z,100818.67
2022-08-29T20:30:32.169Z,100823.15
2022-08-29T20:33:04.712Z,100826.64
2022-08-29T20:35:55.178Z,100830.11
2022-08-29T20:38:27.128Z,100832.52
2022-08-29T20:41:00.580Z,100830.45
2022-08-29T20:43:32.564Z,100827.66
2022-08-29T20:46:08.888Z,100824.52
2022-08-29T20:48:40.823Z,100823.63
2022-08-29T20:51:13.193Z,100821.19
2022-08-29T20:53:45.288Z,100818.31
2022-08-29T20:56:16.968Z,100824.15
2022-08-29T20:58:48.743Z,100824.46
2022-08-29T21:01:21.130Z,100826.86
2022-08-29T21:04:10.817Z,100829.14
2022-08-29T21:06:42.638Z,100829.20
2022-08-29T21:09:14.381Z,100822.92
2022-08-29T21:11:46.132Z,100825.48
2022-08-29T21:14:18.038Z,100825.41
2022-08-29T21:16:50.488Z,100829.43
2022-08-29T21:19:21.307Z,100828.44
2022-08-29T21:21:53.919Z,100829.66
2022-08-29T21:24:25.986Z,100833.39
2022-08-29T21:26:58.217Z,100831.20
2022-08-29T21:29:30.292Z,100832.72
2022-08-29T21:32:02.272Z,100837.96
2022-08-29T21:34:34.218Z,100841.30
2022-08-29T21:37:06.622Z,100842.56
2022-08-29T21:39:38.429Z,100843.73
2022-08-29T21:42:10.377Z,100847.45
2022-08-29T21:44:42.774Z,100850.55
2022-08-29T21:47:17.711Z,100852.95
2022-08-29T21:49:51.660Z,100854.61
2022-08-29T21:52:24.025Z,100852.73
2022-08-29T21:54:55.965Z,100852.98
2022-08-29T21:57:45.378Z,100856.84
2022-08-29T22:00:18.428Z,100857.50
2022-08-29T22:02:50.787Z,100866.59
2022-08-29T22:05:23.305Z,100867.80
2022-08-29T22:07:55.073Z,100872.84
2022-08-29T22:10:30.387Z,100878.23
2022-08-29T22:13:03.754Z,100876.38
2022-08-29T22:15:53.321Z,100881.09
2022-08-29T22:18:25.402Z,100878.92
2022-08-29T22:20:58.537Z,100883.31
2022-08-29T22:23:30.768Z,100882.41
2022-08-29T22:26:02.557Z,100887.66
2022-08-29T22:28:34.251Z,100888.52
2022-08-29T22:31:06.327Z,100888.64
2022-08-29T22:33:38.390Z,100885.83
2022-08-29T22:36:13.856Z,100889.55
2022-08-29T22:38:47.366Z,100885.27
2022-08-29T22:41:25.834Z,100887.15
2022-08-29T22:44:31.958Z,100886.48
2022-08-29T22:46:49.883Z,100888.75
2022-08-29T22:49:21.703Z,100885.89
2022-08-29T22:51:53.831Z,100894.34
2022-08-29T22:54:37.630Z,100895.66
2022-08-29T22:57:11.814Z,100892.55
2022-08-29T22:59:44.922Z,100893.17
2022-08-29T23:02:17.551Z,100895.17
2022-08-29T23:04:51.597Z,100893.20
2022-08-29T23:07:24.470Z,100895.23
2022-08-29T23:09:56.509Z,100901.42
2022-08-29T23:12:28.612Z,100901.98
2022-08-29T23:15:00.516Z,100906.63
2022-08-29T23:17:32.686Z,100906.11
2022-08-29T23:20:05.596Z,100901.89
2022-08-29T23:22:37.950Z,100904.41
2022-08-29T23:25:12.132Z,100903.55
2022-08-29T23:27:44.413Z,100904.99
2022-08-29T23:30:16.869Z,100904.47
2022-08-29T23:32:48.552Z,100905.51
2022-08-29T23:35:20.350Z,100902.59
2022-08-29T23:37:52.164Z,100901.51
2022-08-29T23:40:23.984Z,100897.65
2022-08-29T23:42:55.995Z,100894.59
2022-08-29T23:45:27.880Z,100896.32
2022-08-29T23:47:59.746Z,100906.23
2022-08-29T23:50:31.607Z,100904.55
2022-08-29T23:53:03.407Z,100906.61
2022-08-29T23:55:35.225Z,100902.42
2022-08-29T23:58:06.982Z,100906.06
